Time;durP1;ratioP1;P1;durP2;ratioP2;P2;SDS_P1;SDS_P2;PMS_P1;PMS_P2;Temp;Humidity;BMP_temperature;BMP_pressure;BME280_temperature;BME280_humidity;BME280_pressure;Samples;Min_cycle;Max_cycle;Signal;HPM_P1;HPM_P2
2023/08/10 00:01:46;;;;;;;0.20;0.10;;;;;;;;;;5053438;28;20040;-82
2023/08/10 00:04:12;;;;;;;0.20;0.10;;;;;;;;;;5049502;28;20117;-83
2023/08/10 00:06:39;;;;;;;0.20;0.10;;;;;;;;;;5041318;28;20512;-83
2023/08/10 00:09:07;;;;;;;0.20;0.10;;;;;;;;;;5050734;28;20104;-83
2023/08/10 00:11:33;;;;;;;0.20;0.10;;;;;;;;;;5049489;28;21336;-82
2023/08/10 00:13:59;;;;;;;0.20;0.08;;;;;;;;;;5038619;28;20206;-82
2023/08/10 00:16:25;;;;;;;0.20;0.10;;;;;;;;;;5046821;28;20511;-83
2023/08/10 00:18:51;;;;;;;0.20;0.10;;;;;;;;;;5045675;28;20066;-82
2023/08/10 00:21:17;;;;;;;0.20;0.05;;;;;;;;;;5045888;28;20511;-83
2023/08/10 00:23:43;;;;;;;0.20;0.10;;;;;;;;;;5053351;28;20044;-82
2023/08/10 00:26:09;;;;;;;0.63;0.57;;;;;;;;;;5040674;28;20048;-82
2023/08/10 00:28:35;;;;;;;0.20;0.10;;;;;;;;;;5050563;28;20064;-82
2023/08/10 00:31:01;;;;;;;0.20;0.10;;;;;;;;;;5038774;28;20067;-81
2023/08/10 00:33:27;;;;;;;0.20;0.10;;;;;;;;;;5044846;28;20104;-82
2023/08/10 00:35:53;;;;;;;0.20;0.10;;;;;;;;;;5053468;28;20314;-82
2023/08/10 00:38:19;;;;;;;0.20;0.10;;;;;;;;;;5068968;28;20036;-82
2023/08/10 00:40:46;;;;;;;0.30;0.10;;;;;;;;;;5053070;28;20508;-82
2023/08/10 00:43:12;;;;;;;0.20;0.10;;;;;;;;;;5069532;28;20046;-82
2023/08/10 00:45:39;;;;;;;0.20;0.10;;;;;;;;;;5055286;28;20044;-82
2023/08/10 00:48:05;;;;;;;0.20;0.10;;;;;;;;;;5066667;28;20107;-81
2023/08/10 00:50:31;;;;;;;0.20;0.00;;;;;;;;;;5053024;28;20034;-82
2023/08/10 00:52:57;;;;;;;0.20;0.10;;;;;;;;;;5058355;28;20027;-80
2023/08/10 00:55:23;;;;;;;0.20;0.10;;;;;;;;;;5070019;28;20040;-80
2023/08/10 00:57:49;;;;;;;0.20;0.10;;;;;;;;;;5061961;28;20044;-81
2023/08/10 01:00:15;;;;;;;0.20;0.00;;;;;;;;;;5057533;28;20036;-82
2023/08/10 01:02:41;;;;;;;0.30;0.20;;;;;;;;;;5056901;28;20046;-81
2023/08/10 01:05:12;;;;;;;0.20;0.10;;;;;;;;;;5052673;28;20035;-80
2023/08/10 01:07:51;;;;;;;0.20;0.13;;;;;;;;;;5065480;28;20032;-82
2023/08/10 01:10:31;;;;;;;0.20;0.10;;;;;;;;;;5054874;28;20036;-81
2023/08/10 01:12:59;;;;;;;0.20;0.10;;;;;;;;;;5052757;28;20075;-80
2023/08/10 01:15:25;;;;;;;0.52;0.52;;;;;;;;;;5050377;28;20028;-81
2023/08/10 01:17:53;;;;;;;0.20;0.10;;;;;;;;;;5066290;28;20039;-82
2023/08/10 01:20:23;;;;;;;0.20;0.10;;;;;;;;;;5050453;28;20426;-82
2023/08/10 01:23:07;;;;;;;0.20;0.10;;;;;;;;;;5046236;28;20044;-82
2023/08/10 01:25:34;;;;;;;0.20;0.00;;;;;;;;;;5048905;28;20048;-82
2023/08/10 01:28:00;;;;;;;0.20;0.10;;;;;;;;;;5063269;28;20715;-82
2023/08/10 01:30:26;;;;;;;0.20;0.10;;;;;;;;;;5064193;28;20028;-81
2023/08/10 01:32:52;;;;;;;0.20;0.10;;;;;;;;;;5057627;28;20040;-81
2023/08/10 01:35:19;;;;;;;0.20;0.05;;;;;;;;;;5059147;28;20062;-82
2023/08/10 01:37:45;;;;;;;0.20;0.10;;;;;;;;;;5050037;28;20098;-81
2023/08/10 01:40:13;;;;;;;0.20;0.10;;;;;;;;;;5048207;28;21799;-81
2023/08/10 01:42:43;;;;;;;0.20;0.10;;;;;;;;;;5063653;28;20602;-80
2023/08/10 01:45:09;;;;;;;0.20;0.00;;;;;;;;;;5045747;28;20520;-82
2023/08/10 01:47:52;;;;;;;0.20;0.10;;;;;;;;;;5062513;28;20036;-82
2023/08/10 01:50:20;;;;;;;0.20;0.10;;;;;;;;;;5052290;28;20043;-81
2023/08/10 01:52:50;;;;;;;0.32;0.20;;;;;;;;;;5048203;28;20028;-82
2023/08/10 01:55:17;;;;;;;0.20;0.10;;;;;;;;;;5053220;28;20053;-80
2023/08/10 01:57:43;;;;;;;0.20;0.10;;;;;;;;;;5055124;28;20044;-81
2023/08/10 02:00:10;;;;;;;0.20;0.10;;;;;;;;;;5049786;28;20040;-82
2023/08/10 02:02:36;;;;;;;0.20;0.10;;;;;;;;;;5053372;28;20416;-82
2023/08/10 02:05:03;;;;;;;0.20;0.10;;;;;;;;;;5069148;28;20107;-81
2023/08/10 02:07:29;;;;;;;0.20;0.10;;;;;;;;;;5056237;28;20055;-81
2023/08/10 02:09:55;;;;;;;0.20;0.10;;;;;;;;;;5045808;28;20432;-81
2023/08/10 02:12:21;;;;;;;0.20;0.10;;;;;;;;;;5063059;28;20284;-81
2023/08/10 02:14:47;;;;;;;0.20;0.10;;;;;;;;;;5050686;28;20818;-81
2023/08/10 02:17:13;;;;;;;0.20;0.20;;;;;;;;;;5051272;28;20048;-82
2023/08/10 02:19:39;;;;;;;0.20;0.10;;;;;;;;;;5051989;28;20035;-81
2023/08/10 02:22:05;;;;;;;0.20;0.10;;;;;;;;;;5051803;28;20064;-81
2023/08/10 02:24:31;;;;;;;0.20;0.10;;;;;;;;;;5050869;28;20052;-82
2023/08/10 02:26:57;;;;;;;0.75;0.20;;;;;;;;;;5050148;28;20040;-82
2023/08/10 02:29:23;;;;;;;0.20;0.10;;;;;;;;;;5050913;28;20044;-81
2023/08/10 02:31:49;;;;;;;0.20;0.10;;;;;;;;;;5051106;28;20036;-82
2023/08/10 02:34:15;;;;;;;0.20;0.10;;;;;;;;;;5062184;28;20086;-80
2023/08/10 02:36:41;;;;;;;0.20;0.00;;;;;;;;;;5064082;28;20115;-82
2023/08/10 02:39:07;;;;;;;0.20;0.10;;;;;;;;;;5050891;28;20043;-81
2023/08/10 02:41:33;;;;;;;0.20;0.05;;;;;;;;;;5046573;28;20043;-81
2023/08/10 02:43:59;;;;;;;0.20;0.10;;;;;;;;;;5044312;28;20045;-82
2023/08/10 02:46:25;;;;;;;0.20;0.10;;;;;;;;;;5045086;28;20059;-81
2023/08/10 02:48:53;;;;;;;0.20;0.10;;;;;;;;;;5048273;28;20052;-81
2023/08/10 02:51:19;;;;;;;0.20;0.10;;;;;;;;;;5047938;28;20074;-81
2023/08/10 02:53:45;;;;;;;0.20;0.10;;;;;;;;;;5042967;28;20610;-82
2023/08/10 02:56:11;;;;;;;0.20;0.10;;;;;;;;;;5049142;28;20567;-81
2023/08/10 02:58:38;;;;;;;0.20;0.05;;;;;;;;;;5053126;28;20040;-81
2023/08/10 03:01:08;;;;;;;0.20;0.10;;;;;;;;;;5054418;22;20827;-84
2023/08/10 03:03:34;;;;;;;0.20;0.10;;;;;;;;;;4995689;28;20421;-83
2023/08/10 03:06:00;;;;;;;0.45;0.17;;;;;;;;;;5014603;28;20033;-84
2023/08/10 03:08:27;;;;;;;0.20;0.10;;;;;;;;;;5011719;28;20107;-84
2023/08/10 03:10:53;;;;;;;0.20;0.10;;;;;;;;;;5010634;28;20046;-84
2023/08/10 03:13:19;;;;;;;0.20;0.10;;;;;;;;;;5009967;28;20038;-83
2023/08/10 03:15:45;;;;;;;0.20;0.08;;;;;;;;;;5011887;28;20038;-84
2023/08/10 03:18:12;;;;;;;0.20;0.10;;;;;;;;;;5014401;28;20036;-85
2023/08/10 03:20:38;;;;;;;0.20;0.10;;;;;;;;;;5017562;28;20049;-84
2023/08/10 03:23:04;;;;;;;0.20;0.10;;;;;;;;;;5014820;28;20046;-84
2023/08/10 03:25:32;;;;;;;0.20;0.10;;;;;;;;;;4997927;28;20099;-83
2023/08/10 03:27:58;;;;;;;0.73;0.20;;;;;;;;;;4997312;28;20046;-83
2023/08/10 03:30:24;;;;;;;0.20;0.10;;;;;;;;;;5000705;28;20526;-83
2023/08/10 03:32:50;;;;;;;0.20;0.10;;;;;;;;;;5006259;28;20116;-84
2023/08/10 03:35:16;;;;;;;0.20;0.10;;;;;;;;;;5016857;28;20037;-84
2023/08/10 03:37:42;;;;;;;0.20;0.10;;;;;;;;;;5001205;28;20045;-83
2023/08/10 03:40:08;;;;;;;0.20;0.05;;;;;;;;;;5012628;28;20115;-83
2023/08/10 03:42:34;;;;;;;0.20;0.10;;;;;;;;;;5022942;28;20049;-85
2023/08/10 03:45:00;;;;;;;0.30;0.10;;;;;;;;;;5006120;28;20037;-84
2023/08/10 03:47:27;;;;;;;0.20;0.10;;;;;;;;;;5013735;28;20038;-84
2023/08/10 03:49:53;;;;;;;0.20;0.10;;;;;;;;;;5010372;28;22105;-84
2023/08/10 03:52:19;;;;;;;0.25;0.25;;;;;;;;;;5007965;28;20048;-84
2023/08/10 03:54:45;;;;;;;0.20;0.20;;;;;;;;;;4996978;28;20045;-84
2023/08/10 03:57:11;;;;;;;0.20;0.20;;;;;;;;;;5003290;28;20044;-84
2023/08/10 03:59:37;;;;;;;0.20;0.10;;;;;;;;;;5005595;28;20043;-83
2023/08/10 04:02:04;;;;;;;0.20;0.10;;;;;;;;;;5030068;28;22220;-83
2023/08/10 04:04:30;;;;;;;0.20;0.10;;;;;;;;;;5021084;28;20091;-84
2023/08/10 04:06:56;;;;;;;0.20;0.10;;;;;;;;;;5001002;28;20033;-84
2023/08/10 04:09:22;;;;;;;0.20;0.10;;;;;;;;;;5031995;28;20034;-84
2023/08/10 04:11:48;;;;;;;0.20;0.10;;;;;;;;;;5013117;28;20045;-84
2023/08/10 04:14:14;;;;;;;0.20;0.08;;;;;;;;;;4995267;28;20045;-82
2023/08/10 04:16:40;;;;;;;0.40;0.20;;;;;;;;;;5006495;28;20102;-82
2023/08/10 04:19:06;;;;;;;0.20;0.10;;;;;;;;;;5011049;28;20138;-84
2023/08/10 04:21:32;;;;;;;0.20;0.05;;;;;;;;;;4995087;28;20052;-84
2023/08/10 04:23:58;;;;;;;0.20;0.00;;;;;;;;;;5007942;28;20048;-83
2023/08/10 04:26:24;;;;;;;0.20;0.10;;;;;;;;;;4996867;28;20045;-83
2023/08/10 04:28:50;;;;;;;0.20;0.10;;;;;;;;;;5009688;28;20121;-83
2023/08/10 04:31:16;;;;;;;0.20;0.10;;;;;;;;;;5008758;28;20050;-84
2023/08/10 04:33:43;;;;;;;0.20;0.10;;;;;;;;;;4985610;28;20041;-83
2023/08/10 04:36:09;;;;;;;0.20;0.10;;;;;;;;;;4991198;28;20123;-84
2023/08/10 04:38:35;;;;;;;0.20;0.10;;;;;;;;;;4987290;28;20045;-84
2023/08/10 04:41:01;;;;;;;0.20;0.10;;;;;;;;;;4988541;28;20060;-84
2023/08/10 04:43:28;;;;;;;0.35;0.35;;;;;;;;;;4985199;28;20052;-83
2023/08/10 04:45:54;;;;;;;0.20;0.10;;;;;;;;;;5010926;28;20046;-84
2023/08/10 04:48:20;;;;;;;0.20;0.10;;;;;;;;;;4989800;28;20041;-84
2023/08/10 04:50:46;;;;;;;0.20;0.10;;;;;;;;;;5003156;28;20041;-85
2023/08/10 04:53:12;;;;;;;0.20;0.10;;;;;;;;;;4997832;28;20445;-83
2023/08/10 04:55:38;;;;;;;0.20;0.10;;;;;;;;;;4996106;28;20041;-83
2023/08/10 04:58:04;;;;;;;0.20;0.10;;;;;;;;;;5005600;28;20049;-83
2023/08/10 05:00:30;;;;;;;0.20;0.20;;;;;;;;;;4988980;28;20045;-84
2023/08/10 05:02:56;;;;;;;0.20;0.10;;;;;;;;;;5010227;28;20049;-83
2023/08/10 05:05:22;;;;;;;0.20;0.10;;;;;;;;;;5000092;28;21883;-83
2023/08/10 05:07:48;;;;;;;0.20;0.20;;;;;;;;;;5015670;28;20772;-84
2023/08/10 05:10:14;;;;;;;0.20;0.10;;;;;;;;;;4995797;28;20734;-83
2023/08/10 05:12:40;;;;;;;0.20;0.10;;;;;;;;;;5003915;28;20481;-85
2023/08/10 05:15:09;;;;;;;0.20;0.10;;;;;;;;;;5011391;28;20038;-83
2023/08/10 05:17:35;;;;;;;0.20;0.10;;;;;;;;;;5012538;28;20050;-84
2023/08/10 05:20:07;;;;;;;0.20;0.05;;;;;;;;;;5015005;28;20525;-84
2023/08/10 05:22:33;;;;;;;0.20;0.10;;;;;;;;;;5026838;28;20056;-84
2023/08/10 05:24:59;;;;;;;0.20;0.10;;;;;;;;;;4993050;28;20315;-84
2023/08/10 05:27:25;;;;;;;0.20;0.10;;;;;;;;;;4996395;28;20033;-84
2023/08/10 05:29:51;;;;;;;0.20;0.05;;;;;;;;;;5027976;28;20045;-84
2023/08/10 05:32:18;;;;;;;0.20;0.10;;;;;;;;;;5012794;28;20045;-84
2023/08/10 05:34:44;;;;;;;0.20;0.10;;;;;;;;;;4994233;28;20025;-84
2023/08/10 05:37:10;;;;;;;0.20;0.00;;;;;;;;;;5014859;28;20048;-84
2023/08/10 05:39:36;;;;;;;0.20;0.10;;;;;;;;;;5008129;28;20127;-85
2023/08/10 05:42:02;;;;;;;0.20;0.10;;;;;;;;;;5010739;28;20521;-84
2023/08/10 05:44:28;;;;;;;0.20;0.10;;;;;;;;;;4998580;28;20096;-84
2023/08/10 05:46:54;;;;;;;0.20;0.10;;;;;;;;;;5000219;28;20034;-84
2023/08/10 05:49:20;;;;;;;0.20;0.10;;;;;;;;;;4993053;28;20033;-84
2023/08/10 05:51:46;;;;;;;0.20;0.10;;;;;;;;;;5011139;28;20052;-83
2023/08/10 05:54:12;;;;;;;0.20;0.10;;;;;;;;;;4995660;28;20038;-84
2023/08/10 05:56:39;;;;;;;0.20;0.10;;;;;;;;;;5014401;28;20295;-82
2023/08/10 05:59:05;;;;;;;0.20;0.10;;;;;;;;;;4997058;28;20041;-83
2023/08/10 06:01:31;;;;;;;0.20;0.10;;;;;;;;;;5015103;28;20072;-84
2023/08/10 06:03:57;;;;;;;0.20;0.00;;;;;;;;;;4998046;28;20119;-85
2023/08/10 06:06:25;;;;;;;0.20;0.10;;;;;;;;;;5001228;28;20033;-84
2023/08/10 06:08:51;;;;;;;0.20;0.10;;;;;;;;;;5004019;28;20034;-84
2023/08/10 06:11:17;;;;;;;0.20;0.10;;;;;;;;;;5017647;28;20046;-85
2023/08/10 06:13:43;;;;;;;0.20;0.10;;;;;;;;;;4998709;28;20030;-84
2023/08/10 06:16:09;;;;;;;0.20;0.10;;;;;;;;;;5023705;28;20044;-83
2023/08/10 06:18:35;;;;;;;0.20;0.03;;;;;;;;;;5005094;28;20128;-84
2023/08/10 06:21:03;;;;;;;0.20;0.10;;;;;;;;;;5015435;28;20132;-85
2023/08/10 06:23:29;;;;;;;0.20;0.10;;;;;;;;;;4996275;28;20426;-84
2023/08/10 06:25:55;;;;;;;0.20;0.10;;;;;;;;;;5004429;28;20037;-84
2023/08/10 06:28:21;;;;;;;0.20;0.05;;;;;;;;;;5017298;28;20041;-83
2023/08/10 06:30:47;;;;;;;0.20;0.10;;;;;;;;;;5011606;28;20045;-82
2023/08/10 06:33:13;;;;;;;0.20;0.10;;;;;;;;;;5010374;28;20038;-83
2023/08/10 06:35:40;;;;;;;0.20;0.10;;;;;;;;;;5018986;28;20184;-84
2023/08/10 06:38:07;;;;;;;0.32;0.30;;;;;;;;;;4996905;28;20038;-83
2023/08/10 06:40:33;;;;;;;0.20;0.10;;;;;;;;;;4995129;28;20099;-84
2023/08/10 06:42:59;;;;;;;0.20;0.10;;;;;;;;;;4997252;28;20426;-83
2023/08/10 06:45:25;;;;;;;0.25;0.17;;;;;;;;;;5013924;28;20038;-83
2023/08/10 06:47:51;;;;;;;0.20;0.10;;;;;;;;;;5019631;28;20072;-83
2023/08/10 06:50:18;;;;;;;0.20;0.10;;;;;;;;;;5004580;28;20149;-84
2023/08/10 06:52:45;;;;;;;0.47;0.20;;;;;;;;;;5002123;28;20703;-83
2023/08/10 06:55:14;;;;;;;0.30;0.22;;;;;;;;;;4995576;28;20045;-83
2023/08/10 06:57:40;;;;;;;0.20;0.10;;;;;;;;;;5007886;28;20050;-83
2023/08/10 07:00:07;;;;;;;0.20;0.10;;;;;;;;;;5001517;28;20049;-84
2023/08/10 07:02:34;;;;;;;0.20;0.10;;;;;;;;;;4996190;28;20042;-83
2023/08/10 07:05:00;;;;;;;0.20;0.10;;;;;;;;;;4999036;28;20045;-84
2023/08/10 07:07:26;;;;;;;0.20;0.10;;;;;;;;;;5015481;28;20033;-83
2023/08/10 07:09:52;;;;;;;0.20;0.10;;;;;;;;;;5002570;28;20698;-86
2023/08/10 07:12:18;;;;;;;0.20;0.10;;;;;;;;;;5018705;28;20073;-83
2023/08/10 07:14:44;;;;;;;0.20;0.10;;;;;;;;;;5002686;28;20041;-84
2023/08/10 07:17:10;;;;;;;0.30;0.30;;;;;;;;;;5005769;28;20041;-83
2023/08/10 07:19:36;;;;;;;0.20;0.10;;;;;;;;;;5014196;28;20038;-84
2023/08/10 07:22:02;;;;;;;0.20;0.10;;;;;;;;;;4998759;28;20037;-84
2023/08/10 07:24:29;;;;;;;0.20;0.10;;;;;;;;;;5042196;28;20498;-84
2023/08/10 07:26:56;;;;;;;0.20;0.10;;;;;;;;;;5014484;28;20042;-84
2023/08/10 07:29:23;;;;;;;0.20;0.10;;;;;;;;;;5007490;28;20101;-84
2023/08/10 07:31:49;;;;;;;0.20;0.10;;;;;;;;;;5013822;28;20405;-84
2023/08/10 07:34:15;;;;;;;0.20;0.00;;;;;;;;;;5002709;28;20581;-84
2023/08/10 07:36:41;;;;;;;0.20;0.10;;;;;;;;;;5012860;28;20037;-83
2023/08/10 07:39:07;;;;;;;0.20;0.10;;;;;;;;;;4983318;28;20049;-83
2023/08/10 07:41:33;;;;;;;0.20;0.10;;;;;;;;;;4988446;28;22692;-84
2023/08/10 07:43:59;;;;;;;0.20;0.00;;;;;;;;;;4993883;28;20033;-84
2023/08/10 07:46:27;;;;;;;0.20;0.10;;;;;;;;;;5015060;28;20153;-86
2023/08/10 07:48:53;;;;;;;0.20;0.10;;;;;;;;;;5006469;28;20033;-84
2023/08/10 07:51:19;;;;;;;0.20;0.10;;;;;;;;;;5013625;28;20042;-83
2023/08/10 07:53:45;;;;;;;0.20;0.10;;;;;;;;;;4998248;28;20041;-84
2023/08/10 07:56:11;;;;;;;0.20;0.10;;;;;;;;;;5014814;28;20033;-83
2023/08/10 07:58:37;;;;;;;0.20;0.10;;;;;;;;;;4983150;28;20051;-83
2023/08/10 08:01:06;;;;;;;0.20;0.10;;;;;;;;;;4994835;28;20422;-83
2023/08/10 08:03:32;;;;;;;0.20;0.10;;;;;;;;;;5007194;28;20042;-85
2023/08/10 08:05:58;;;;;;;0.40;0.40;;;;;;;;;;5019113;28;20120;-83
2023/08/10 08:08:24;;;;;;;0.20;0.10;;;;;;;;;;5000179;28;20037;-84
2023/08/10 08:10:51;;;;;;;0.20;0.10;;;;;;;;;;5011174;28;20030;-83
2023/08/10 08:13:17;;;;;;;0.22;0.10;;;;;;;;;;4993238;28;20132;-83
2023/08/10 08:15:43;;;;;;;0.20;0.10;;;;;;;;;;4999058;28;20490;-83
2023/08/10 08:18:28;;;;;;;0.20;0.10;;;;;;;;;;4993754;28;20041;-84
2023/08/10 08:20:54;;;;;;;0.20;0.10;;;;;;;;;;5010688;28;20068;-85
2023/08/10 08:23:20;;;;;;;0.20;0.10;;;;;;;;;;5025032;28;20846;-83
2023/08/10 08:25:46;;;;;;;0.20;0.10;;;;;;;;;;5013100;28;20065;-86
2023/08/10 08:28:12;;;;;;;0.20;0.10;;;;;;;;;;5008583;28;20115;-84
2023/08/10 08:30:38;;;;;;;0.20;0.10;;;;;;;;;;5014906;28;20073;-83
2023/08/10 08:33:04;;;;;;;0.20;0.10;;;;;;;;;;4998003;28;21408;-84
2023/08/10 08:35:30;;;;;;;0.20;0.10;;;;;;;;;;5008962;28;20639;-83
2023/08/10 08:37:56;;;;;;;1.33;0.28;;;;;;;;;;5019803;28;20156;-85
2023/08/10 08:40:23;;;;;;;0.20;0.10;;;;;;;;;;4990270;28;20041;-84
2023/08/10 08:42:49;;;;;;;0.20;0.10;;;;;;;;;;5008123;28;20121;-86
2023/08/10 08:45:16;;;;;;;0.20;0.10;;;;;;;;;;4997493;28;20041;-84
2023/08/10 08:47:45;;;;;;;0.20;0.10;;;;;;;;;;4996374;28;20046;-85
2023/08/10 08:50:11;;;;;;;0.20;0.00;;;;;;;;;;5011023;28;20504;-82
2023/08/10 08:52:40;;;;;;;0.20;0.00;;;;;;;;;;4991503;28;20125;-85
2023/08/10 08:55:08;;;;;;;0.20;0.10;;;;;;;;;;5014220;28;20050;-83
2023/08/10 08:57:34;;;;;;;0.20;0.10;;;;;;;;;;5010165;28;20057;-83
2023/08/10 09:00:01;;;;;;;0.20;0.10;;;;;;;;;;5026338;28;20056;-83
2023/08/10 09:02:27;;;;;;;0.20;0.10;;;;;;;;;;5044769;23;20057;-82
2023/08/10 09:04:59;;;;;;;0.20;0.10;;;;;;;;;;5029886;28;20273;-82
2023/08/10 09:07:25;;;;;;;0.20;0.10;;;;;;;;;;5033019;28;20048;-82
2023/08/10 09:09:51;;;;;;;0.20;0.10;;;;;;;;;;5022004;28;20052;-82
2023/08/10 09:12:30;;;;;;;0.20;0.10;;;;;;;;;;5018099;28;20064;-82
2023/08/10 09:15:03;;;;;;;0.20;0.10;;;;;;;;;;5029434;28;20068;-82
2023/08/10 09:17:29;;;;;;;0.20;0.00;;;;;;;;;;5019971;28;20043;-82
2023/08/10 09:19:55;;;;;;;0.20;0.10;;;;;;;;;;5031543;28;20079;-83
2023/08/10 09:22:31;;;;;;;0.20;0.10;;;;;;;;;;5020680;28;20049;-82
2023/08/10 09:24:57;;;;;;;0.20;0.10;;;;;;;;;;5007808;28;20056;-82
2023/08/10 09:27:27;;;;;;;0.20;0.10;;;;;;;;;;5012965;28;21737;-82
2023/08/10 09:30:12;;;;;;;0.20;0.10;;;;;;;;;;5008924;28;20033;-85
2023/08/10 09:32:39;;;;;;;0.20;0.05;;;;;;;;;;5021459;28;20040;-83
2023/08/10 09:35:05;;;;;;;0.20;0.00;;;;;;;;;;5019082;28;20041;-82
2023/08/10 09:37:34;;;;;;;0.20;0.10;;;;;;;;;;5037671;28;20076;-83
2023/08/10 09:40:05;;;;;;;0.20;0.10;;;;;;;;;;5027705;28;20405;-85
2023/08/10 09:42:34;;;;;;;0.20;0.00;;;;;;;;;;5012070;28;20059;-85
2023/08/10 09:45:10;;;;;;;0.20;0.10;;;;;;;;;;5015616;28;20033;-82
2023/08/10 09:47:37;;;;;;;0.20;0.10;;;;;;;;;;5028621;28;20287;-83
2023/08/10 09:50:12;;;;;;;0.20;0.10;;;;;;;;;;5016990;28;20140;-83
2023/08/10 09:52:56;;;;;;;0.20;0.10;;;;;;;;;;5029084;28;20045;-82
2023/08/10 09:55:22;;;;;;;0.20;0.10;;;;;;;;;;5008782;28;20052;-82
2023/08/10 09:57:59;;;;;;;0.20;0.10;;;;;;;;;;5008591;28;20308;-83
2023/08/10 10:00:25;;;;;;;0.20;0.10;;;;;;;;;;5026044;28;20056;-84
2023/08/10 10:02:54;;;;;;;0.20;0.10;;;;;;;;;;5008312;28;20052;-83
2023/08/10 10:05:29;;;;;;;0.20;0.10;;;;;;;;;;5023847;28;20475;-84
2023/08/10 10:07:58;;;;;;;0.20;0.10;;;;;;;;;;5021779;28;20055;-83
2023/08/10 10:10:35;;;;;;;0.20;0.10;;;;;;;;;;5032551;28;20048;-82
2023/08/10 10:13:02;;;;;;;0.20;0.10;;;;;;;;;;5019954;28;20044;-81
2023/08/10 10:15:36;;;;;;;0.20;0.13;;;;;;;;;;5019741;28;20140;-81
2023/08/10 10:18:14;;;;;;;0.20;0.10;;;;;;;;;;5033706;28;20204;-81
2023/08/10 10:21:02;;;;;;;0.20;0.10;;;;;;;;;;5019825;28;20040;-81
2023/08/10 10:23:40;;;;;;;0.20;0.10;;;;;;;;;;5025377;28;20048;-82
2023/08/10 10:26:07;;;;;;;0.20;0.00;;;;;;;;;;5035432;28;20300;-80
2023/08/10 10:28:33;;;;;;;0.20;0.10;;;;;;;;;;5034869;28;20052;-82
2023/08/10 10:31:05;;;;;;;0.20;0.10;;;;;;;;;;5017476;28;20049;-82
2023/08/10 10:33:34;;;;;;;0.20;0.03;;;;;;;;;;5018509;28;20369;-84
2023/08/10 10:36:11;;;;;;;0.20;0.13;;;;;;;;;;5022448;28;20136;-81
2023/08/10 10:38:40;;;;;;;0.20;0.10;;;;;;;;;;5037460;28;20064;-82
2023/08/10 10:41:32;;;;;;;0.20;0.10;;;;;;;;;;5035726;28;20041;-83
2023/08/10 10:43:59;;;;;;;0.20;0.10;;;;;;;;;;5018171;28;20059;-83
2023/08/10 10:46:31;;;;;;;0.20;0.10;;;;;;;;;;5019291;28;20044;-83
2023/08/10 10:48:58;;;;;;;0.20;0.10;;;;;;;;;;5016664;28;20057;-84
2023/08/10 10:51:24;;;;;;;0.20;0.05;;;;;;;;;;5020323;28;20099;-83
2023/08/10 10:53:54;;;;;;;0.20;0.10;;;;;;;;;;5018643;28;20048;-83
2023/08/10 10:56:29;;;;;;;0.20;0.00;;;;;;;;;;5033792;28;20900;-82
2023/08/10 10:58:57;;;;;;;0.20;0.10;;;;;;;;;;5032211;28;20041;-83
2023/08/10 11:03:55;;;;;;;0.20;0.10;;;;;;;;;;5036602;28;20437;-82
2023/08/10 11:06:24;;;;;;;0.20;0.10;;;;;;;;;;5023862;28;20765;-82
2023/08/10 11:08:51;;;;;;;0.20;0.10;;;;;;;;;;5016545;28;20045;-81
2023/08/10 11:14:16;;;;;;;0.25;0.17;;;;;;;;;;5037959;28;20041;-83
2023/08/10 11:16:50;;;;;;;0.20;0.10;;;;;;;;;;5022800;28;20045;-83
2023/08/10 11:19:19;;;;;;;0.20;0.10;;;;;;;;;;5017811;28;20350;-82
2023/08/10 11:21:51;;;;;;;0.20;0.10;;;;;;;;;;5021575;28;20045;-81
2023/08/10 11:24:17;;;;;;;;;;;;;;;;;;5040258;28;20053;-82
2023/08/10 11:26:43;;;;;;;0.20;0.10;;;;;;;;;;4999390;28;19951;-82
2023/08/10 11:29:17;;;;;;;0.20;0.13;;;;;;;;;;5017404;28;20083;-83
2023/08/10 11:31:45;;;;;;;0.35;0.25;;;;;;;;;;5054608;28;20047;-81
2023/08/10 11:34:27;;;;;;;0.20;0.10;;;;;;;;;;5020077;28;20047;-83
2023/08/10 11:36:53;;;;;;;0.20;0.10;;;;;;;;;;5035337;28;20037;-83
2023/08/10 11:39:20;;;;;;;0.20;0.10;;;;;;;;;;5033570;28;20124;-82
2023/08/10 11:41:46;;;;;;;0.20;0.00;;;;;;;;;;5029809;28;20041;-82
2023/08/10 11:44:37;;;;;;;0.20;0.10;;;;;;;;;;5038682;28;20107;-82
2023/08/10 11:47:04;;;;;;;0.32;0.25;;;;;;;;;;5007236;28;20049;-82
2023/08/10 11:49:33;;;;;;;0.20;0.10;;;;;;;;;;5020257;28;20128;-84
2023/08/10 11:52:00;;;;;;;0.20;0.10;;;;;;;;;;5023268;28;20039;-81
2023/08/10 11:54:37;;;;;;;0.20;0.10;;;;;;;;;;5032657;28;20047;-81
2023/08/10 11:57:12;;;;;;;0.30;0.20;;;;;;;;;;5037580;28;20513;-82
2023/08/10 11:59:39;;;;;;;0.20;0.10;;;;;;;;;;5030426;28;20045;-81
2023/08/10 12:02:05;;;;;;;0.20;0.10;;;;;;;;;;5015927;28;20037;-82
2023/08/10 12:04:31;;;;;;;0.20;0.10;;;;;;;;;;5019130;28;20045;-81
2023/08/10 12:06:57;;;;;;;0.20;0.10;;;;;;;;;;5011474;28;20049;-83
2023/08/10 12:09:28;;;;;;;0.20;0.10;;;;;;;;;;5003358;28;20151;-81
2023/08/10 12:11:55;;;;;;;0.20;0.10;;;;;;;;;;5019440;28;20037;-81
2023/08/10 12:14:21;;;;;;;0.20;0.10;;;;;;;;;;4994820;28;20917;-82
2023/08/10 12:16:47;;;;;;;0.20;0.10;;;;;;;;;;5013016;28;20153;-81
2023/08/10 12:19:13;;;;;;;0.20;0.10;;;;;;;;;;5031947;28;20052;-81
2023/08/10 12:21:39;;;;;;;0.20;0.00;;;;;;;;;;5017180;28;20045;-80
2023/08/10 12:24:05;;;;;;;0.20;0.00;;;;;;;;;;5017524;28;20051;-81
2023/08/10 12:26:31;;;;;;;0.20;0.10;;;;;;;;;;5049442;28;20106;-81
2023/08/10 12:28:57;;;;;;;0.20;0.10;;;;;;;;;;5040677;28;20040;-82
2023/08/10 12:31:25;;;;;;;0.20;0.10;;;;;;;;;;5035946;28;20381;-81
2023/08/10 12:33:55;;;;;;;0.20;0.10;;;;;;;;;;5048623;28;20507;-80
2023/08/10 12:36:21;;;;;;;0.20;0.10;;;;;;;;;;5044308;28;20476;-81
2023/08/10 12:38:47;;;;;;;0.20;0.10;;;;;;;;;;5028409;28;20878;-81
2023/08/10 12:41:13;;;;;;;0.20;0.10;;;;;;;;;;5043603;28;20254;-82
2023/08/10 12:43:39;;;;;;;0.20;0.10;;;;;;;;;;5062605;28;20044;-82
2023/08/10 12:46:06;;;;;;;0.20;0.10;;;;;;;;;;5059810;28;20412;-82
2023/08/10 12:48:32;;;;;;;0.20;0.15;;;;;;;;;;5048204;28;20123;-82
2023/08/10 12:50:58;;;;;;;0.20;0.10;;;;;;;;;;5043318;28;20316;-80
2023/08/10 12:53:25;;;;;;;0.60;0.45;;;;;;;;;;5035963;28;20135;-82
2023/08/10 12:55:52;;;;;;;0.20;0.10;;;;;;;;;;5038928;28;20127;-82
2023/08/10 12:58:18;;;;;;;0.20;0.03;;;;;;;;;;5026351;28;20037;-82
2023/08/10 13:00:44;;;;;;;0.20;0.10;;;;;;;;;;5043590;28;20036;-81
2023/08/10 13:03:11;;;;;;;0.30;0.17;;;;;;;;;;5035110;28;20052;-81
2023/08/10 13:05:37;;;;;;;0.20;0.00;;;;;;;;;;5048409;28;20108;-81
2023/08/10 13:08:04;;;;;;;0.20;0.03;;;;;;;;;;5050568;28;20066;-82
2023/08/10 13:10:30;;;;;;;0.20;0.03;;;;;;;;;;5029600;28;20037;-81
2023/08/10 13:12:56;;;;;;;0.20;0.10;;;;;;;;;;5050763;28;20067;-81
2023/08/10 13:15:22;;;;;;;0.20;0.10;;;;;;;;;;5029307;28;20328;-82
2023/08/10 13:17:48;;;;;;;0.20;0.00;;;;;;;;;;5031367;28;20036;-81
2023/08/10 13:20:14;;;;;;;0.20;0.10;;;;;;;;;;5031271;28;20054;-81
2023/08/10 13:22:40;;;;;;;0.20;0.10;;;;;;;;;;5040087;28;20762;-82
2023/08/10 13:25:06;;;;;;;0.28;0.20;;;;;;;;;;5028464;28;20382;-82
2023/08/10 13:27:32;;;;;;;0.20;0.10;;;;;;;;;;5046035;28;20040;-83
2023/08/10 13:29:58;;;;;;;0.20;0.10;;;;;;;;;;5048160;28;20033;-82
2023/08/10 13:32:24;;;;;;;0.20;0.10;;;;;;;;;;5020093;28;20093;-84
2023/08/10 13:34:51;;;;;;;0.20;0.10;;;;;;;;;;5027484;28;20036;-82
2023/08/10 13:37:20;;;;;;;0.20;0.15;;;;;;;;;;5030555;28;20044;-81
2023/08/10 13:39:46;;;;;;;0.20;0.10;;;;;;;;;;5026218;28;20690;-82
2023/08/10 13:42:12;;;;;;;0.25;0.13;;;;;;;;;;5044557;28;20472;-81
2023/08/10 13:44:38;;;;;;;0.38;0.28;;;;;;;;;;5025082;28;22185;-81
2023/08/10 13:47:05;;;;;;;0.20;0.10;;;;;;;;;;5044896;28;20036;-81
2023/08/10 13:49:31;;;;;;;0.20;0.10;;;;;;;;;;5044766;28;20040;-82
2023/08/10 13:51:58;;;;;;;2.28;0.90;;;;;;;;;;5020224;28;20054;-82
2023/08/10 13:54:23;;;;;;;0.20;0.10;;;;;;;;;;5042041;28;20044;-82
2023/08/10 13:57:11;;;;;;;0.20;0.10;;;;;;;;;;5040276;28;20045;-82
2023/08/10 13:59:37;;;;;;;0.20;0.10;;;;;;;;;;5036817;28;20075;-82
2023/08/10 14:02:05;;;;;;;0.20;0.10;;;;;;;;;;5042679;28;20036;-82
2023/08/10 14:04:31;;;;;;;0.20;0.10;;;;;;;;;;5030570;28;20037;-81
2023/08/10 14:06:57;;;;;;;0.20;0.10;;;;;;;;;;5035887;28;20086;-81
2023/08/10 14:09:23;;;;;;;0.20;0.00;;;;;;;;;;5032707;28;20566;-82
2023/08/10 14:11:49;;;;;;;0.65;0.28;;;;;;;;;;5042038;28;20051;-81
2023/08/10 14:14:17;;;;;;;0.20;0.10;;;;;;;;;;5041674;28;20033;-81
2023/08/10 14:16:43;;;;;;;0.20;0.10;;;;;;;;;;5041806;28;20595;-82
2023/08/10 14:19:09;;;;;;;0.20;0.10;;;;;;;;;;5029765;28;20040;-81
2023/08/10 14:21:35;;;;;;;0.20;0.10;;;;;;;;;;5017196;28;20398;-82
2023/08/10 14:24:02;;;;;;;0.20;0.10;;;;;;;;;;5050681;28;20996;-81
2023/08/10 14:26:28;;;;;;;0.22;0.20;;;;;;;;;;5020833;28;20094;-82
2023/08/10 14:28:54;;;;;;;0.20;0.10;;;;;;;;;;5039081;28;20512;-82
2023/08/10 14:31:20;;;;;;;0.30;0.10;;;;;;;;;;5034926;28;20346;-82
2023/08/10 14:33:47;;;;;;;0.20;0.10;;;;;;;;;;5033881;28;20037;-81
2023/08/10 14:36:13;;;;;;;0.20;0.10;;;;;;;;;;5026175;28;20161;-82
2023/08/10 14:38:39;;;;;;;0.20;0.10;;;;;;;;;;5018490;28;20484;-81
2023/08/10 14:41:05;;;;;;;0.20;0.10;;;;;;;;;;5037704;28;20043;-80
2023/08/10 14:43:31;;;;;;;0.20;0.10;;;;;;;;;;5028955;28;20110;-82
2023/08/10 14:45:57;;;;;;;0.20;0.10;;;;;;;;;;5022119;28;20376;-80
2023/08/10 14:48:23;;;;;;;0.20;0.10;;;;;;;;;;5022300;28;20043;-81
2023/08/10 14:50:49;;;;;;;0.20;0.10;;;;;;;;;;5023694;28;20032;-82